createdAt,value
2023-05-09T00:02:28.567Z,10.05
2023-05-09T00:07:30.429Z,10.73
2023-05-09T00:12:33.653Z,8.02
2023-05-09T00:17:35.603Z,6.15
2023-05-09T00:22:37.754Z,9.63
2023-05-09T00:27:40.754Z,9.75
2023-05-09T00:32:42.455Z,9.32
2023-05-09T00:37:44.098Z,6.65
2023-05-09T00:42:47.067Z,16.30
2023-05-09T00:47:48.764Z,19.75
2023-05-09T00:52:50.727Z,12.77
2023-05-09T00:57:53.747Z,10.80
2023-05-09T01:02:56.482Z,8.23
2023-05-09T01:08:06.856Z,9.73
2023-05-09T01:13:19.733Z,11.85
2023-05-09T01:18:27.408Z,8.98
2023-05-09T01:24:08.174Z,8.07
2023-05-09T01:29:33.233Z,9.32
2023-05-09T01:34:38.320Z,12.27
2023-05-09T01:39:42.092Z,15.52
2023-05-09T01:44:47.576Z,6.90
2023-05-09T01:54:51.717Z,8.27
2023-05-09T01:59:55.856Z,11.40
2023-05-09T02:04:58.626Z,11.45
2023-05-09T02:10:02.228Z,8.38
2023-05-09T02:15:06.937Z,12.32
2023-05-09T02:25:28.322Z,14.82
2023-05-09T02:30:36.582Z,15.68
2023-05-09T02:35:39.771Z,12.20
2023-05-09T02:40:42.964Z,9.00
2023-05-09T02:45:45.994Z,6.60
2023-05-09T02:50:47.676Z,9.20
2023-05-09T02:55:49.317Z,15.27
2023-05-09T03:00:52.363Z,15.30
2023-05-09T03:05:54.028Z,9.38
2023-05-09T03:10:55.747Z,10.43
2023-05-09T03:15:58.850Z,11.25
2023-05-09T03:21:00.510Z,10.40
2023-05-09T03:26:02.114Z,9.35
2023-05-09T03:31:05.313Z,15.27
2023-05-09T03:36:07.624Z,13.82
2023-05-09T03:41:09.921Z,7.70
2023-05-09T03:46:12.908Z,10.25
2023-05-09T03:51:14.592Z,9.88
2023-05-09T03:56:16.206Z,7.50
2023-05-09T04:01:19.488Z,6.43
2023-05-09T04:06:21.362Z,8.07
2023-05-09T04:11:22.998Z,10.57
2023-05-09T04:16:26.041Z,5.50
2023-05-09T04:21:27.698Z,9.27
2023-05-09T04:26:29.371Z,8.05
2023-05-09T04:31:32.447Z,17.48
2023-05-09T04:36:34.202Z,8.50
2023-05-09T04:41:35.977Z,8.00
2023-05-09T04:46:39.310Z,7.82
2023-05-09T04:51:41.055Z,12.32
2023-05-09T04:56:42.740Z,11.20
2023-05-09T05:01:45.814Z,7.22
2023-05-09T05:06:47.561Z,8.25
2023-05-09T05:11:59.563Z,14.80
2023-05-09T05:17:04.976Z,17.67
2023-05-09T05:22:06.623Z,21.20
2023-05-09T05:27:08.279Z,11.20
2023-05-09T05:32:11.359Z,10.85
2023-05-09T05:37:13.070Z,12.57
2023-05-09T05:42:14.734Z,6.78
2023-05-09T05:47:17.821Z,11.75
2023-05-09T05:52:20.025Z,7.57
2023-05-09T05:57:21.919Z,8.95
2023-05-09T06:02:25.014Z,14.07
2023-05-09T06:07:27.495Z,8.05
2023-05-09T06:12:29.119Z,9.00
2023-05-09T06:17:32.225Z,19.98
2023-05-09T06:22:33.878Z,15.65
2023-05-09T06:27:38.155Z,18.67
2023-05-09T06:32:41.222Z,20.05
2023-05-09T06:37:43.045Z,17.45
2023-05-09T06:42:44.852Z,18.73
2023-05-09T06:47:48.091Z,22.30
2023-05-09T06:52:51.130Z,23.10
2023-05-09T06:57:52.905Z,20.02
2023-05-09T07:02:55.991Z,21.35
2023-05-09T07:08:02.014Z,23.98
2023-05-09T07:13:03.765Z,23.45
2023-05-09T07:18:10.369Z,22.25
2023-05-09T07:23:13.650Z,18.42
2023-05-09T07:28:17.802Z,20.23
2023-05-09T07:33:28.510Z,18.67
2023-05-09T07:38:43.572Z,25.25
2023-05-09T07:43:54.763Z,19.83
2023-05-09T07:48:57.859Z,21.85
2023-05-09T07:53:59.515Z,21.02
2023-05-09T07:59:01.174Z,19.05
2023-05-09T08:04:04.481Z,16.95
2023-05-09T08:09:08.080Z,31.60
2023-05-09T08:14:10.259Z,18.92
2023-05-09T08:19:13.269Z,19.80
2023-05-09T08:24:14.929Z,19.83
2023-05-09T08:29:16.585Z,18.85
2023-05-09T08:34:20.500Z,17.92
2023-05-09T08:39:42.332Z,15.65
2023-05-09T08:44:59.061Z,19.20
2023-05-09T08:50:08.345Z,15.82
2023-05-09T09:07:33.870Z,15.15
2023-05-09T09:13:46.814Z,12.52
2023-05-09T09:19:21.839Z,13.63
2023-05-09T09:24:38.346Z,14.77
2023-05-09T09:36:02.318Z,16.83
2023-05-09T09:41:06.249Z,13.77
2023-05-09T09:47:17.537Z,14.50
2023-05-09T09:52:56.415Z,12.57
2023-05-09T10:12:23.253Z,13.27
2023-05-09T10:23:55.469Z,7.63
2023-05-09T10:30:34.233Z,9.15
2023-05-09T10:42:48.171Z,7.85
2023-05-09T11:12:57.520Z,7.18
2023-05-09T11:18:18.962Z,8.45
2023-05-09T11:37:56.393Z,3.92
2023-05-09T11:43:13.510Z,10.55
2023-05-09T11:49:12.285Z,6.85
2023-05-09T11:55:26.429Z,8.02
2023-05-09T12:14:10.687Z,5.57
2023-05-09T12:32:19.693Z,5.32
2023-05-09T12:44:06.683Z,2.03
2023-05-09T12:50:02.667Z,5.40
2023-05-09T12:56:05.323Z,4.93
2023-05-09T13:01:47.673Z,5.43
2023-05-09T13:07:53.071Z,4.93
2023-05-09T13:56:29.702Z,2.55
2023-05-09T14:15:16.994Z,5.93
2023-05-09T14:27:16.400Z,6.60
2023-05-09T14:39:12.977Z,6.07
2023-05-09T14:45:16.038Z,6.07
2023-05-09T14:57:22.077Z,5.95
2023-05-09T15:09:01.644Z,2.83
2023-05-09T15:14:09.214Z,4.38
2023-05-09T15:19:15.702Z,7.93
2023-05-09T15:24:18.783Z,5.72
2023-05-09T15:29:28.039Z,17.23
2023-05-09T15:34:31.910Z,5.43
2023-05-09T15:39:35.378Z,6.30
2023-05-09T15:44:37.012Z,13.70
2023-05-09T15:49:38.800Z,10.13
2023-05-09T15:54:41.900Z,11.73
2023-05-09T15:59:43.566Z,14.30
2023-05-09T16:04:45.240Z,11.25
2023-05-09T16:09:48.336Z,12.80
2023-05-09T16:20:30.859Z,12.10
2023-05-09T16:25:35.409Z,10.80
2023-05-09T16:30:38.045Z,15.32
2023-05-09T16:35:39.713Z,8.15
2023-05-09T16:40:42.896Z,10.93
2023-05-09T16:45:44.524Z,10.93
2023-05-09T16:50:46.232Z,8.57
2023-05-09T16:55:49.259Z,14.93
2023-05-09T17:00:50.881Z,6.93
2023-05-09T17:05:52.594Z,3.20
2023-05-09T17:10:56.945Z,4.43
2023-05-09T17:15:58.629Z,5.30
2023-05-09T17:21:00.273Z,4.47
2023-05-09T17:26:03.341Z,2.70
2023-05-09T17:31:05.000Z,5.68
2023-05-09T17:36:10.046Z,1.42
2023-05-09T17:41:13.179Z,4.75
2023-05-09T17:46:14.991Z,5.03
2023-05-09T17:51:16.738Z,3.63
2023-05-09T17:56:19.824Z,2.63
2023-05-09T18:01:21.682Z,11.18
2023-05-09T18:06:23.371Z,1.45
2023-05-09T18:11:26.443Z,7.20
2023-05-09T18:16:28.103Z,1.15
2023-05-09T18:21:29.883Z,1.92
2023-05-09T18:26:32.834Z,0.85
2023-05-09T18:31:34.531Z,0.85
2023-05-09T18:36:36.245Z,0.85
2023-05-09T18:41:39.289Z,1.30
2023-05-09T18:46:40.924Z,2.97
2023-05-09T18:51:42.610Z,1.13
2023-05-09T18:56:45.901Z,2.75
2023-05-09T19:01:47.527Z,0.98
2023-05-09T19:06:49.537Z,3.00
2023-05-09T19:11:52.564Z,0.93
2023-05-09T19:16:54.510Z,4.97
2023-05-09T19:21:56.218Z,1.23
2023-05-09T19:26:59.322Z,2.88
2023-05-09T19:32:00.975Z,4.05
2023-05-09T19:37:02.935Z,3.40
2023-05-09T19:42:05.929Z,7.70
2023-05-09T19:47:07.622Z,2.72
2023-05-09T19:52:09.350Z,4.80
2023-05-09T19:57:12.458Z,2.13
2023-05-09T20:02:14.156Z,11.95
2023-05-09T20:07:15.894Z,4.57
2023-05-09T20:12:18.956Z,4.43
2023-05-09T20:17:20.823Z,8.77
2023-05-09T20:22:22.535Z,2.22
2023-05-09T20:27:25.586Z,1.45
2023-05-09T20:32:27.235Z,5.35
2023-05-09T20:37:28.834Z,6.38
2023-05-09T20:42:31.908Z,2.20
2023-05-09T20:47:33.642Z,1.25
2023-05-09T20:52:35.641Z,1.60
2023-05-09T20:57:38.694Z,2.67
2023-05-09T21:02:40.543Z,0.38
2023-05-09T21:07:42.364Z,4.10
2023-05-09T21:12:45.424Z,0.22
2023-05-09T21:17:47.060Z,0.73
2023-05-09T21:22:48.709Z,3.10
2023-05-09T21:27:51.813Z,0.10
2023-05-09T21:32:53.463Z,0.70
2023-05-09T21:37:55.217Z,1.65
2023-05-09T21:42:58.285Z,12.48
2023-05-09T21:47:59.931Z,4.80
2023-05-09T21:53:01.618Z,4.75
2023-05-09T21:58:04.749Z,6.85
2023-05-09T22:03:06.537Z,0.85
2023-05-09T22:08:08.213Z,0.00
2023-05-09T22:13:11.285Z,0.00
2023-05-09T22:18:12.950Z,1.38
2023-05-09T22:23:14.549Z,0.15
2023-05-09T22:28:17.741Z,2.00
2023-05-09T22:33:20.189Z,3.75
2023-05-09T22:38:21.834Z,0.00
2023-05-09T22:43:28.747Z,2.83
2023-05-09T22:48:35.409Z,0.00
2023-05-09T22:53:37.103Z,0.82
2023-05-09T22:58:40.060Z,2.53
2023-05-09T23:03:41.778Z,0.10
2023-05-09T23:08:43.495Z,0.00
2023-05-09T23:13:46.518Z,0.00
2023-05-09T23:18:48.142Z,3.72
2023-05-09T23:23:49.787Z,0.00
2023-05-09T23:28:52.873Z,0.00
2023-05-09T23:33:54.532Z,0.35
2023-05-09T23:38:56.122Z,0.00
2023-05-09T23:43:59.120Z,5.35
2023-05-09T23:49:00.802Z,0.00
2023-05-09T23:54:02.472Z,0.10
2023-05-09T23:59:05.499Z,0.00
